Tiempo atmosférico en la estación meteorológica de Madrid, Madrid (667 m.)



Fecha
DESCASC
Temp. máxima en grados centígrados (hora)
DESCASC
Temp. mínima en grados centígrados (hora)
DESCASC
Temp. media en grados centígrados
DESCASC
Racha de viento máxima en m/sg (hora)
DESCASC
Velocidad máxima media en intervalos de 10 minutos(hora)
DESCASC
Precipitaciones diarias en mm
DESCASC
Precipitaciones de 00:00 a 06:00 en mm
DESCASC
Precipitaciones de 06:00 a 12:00 en mm
DESCASC
Precipitaciones de 12:00 a 18:00 en mm
DESCASC
Precipitaciones de 18:00 a 24:00 en mm
DESCASC

Gráficas

Temp. máximas Temp. mínimas Temp. medias Precipitaciones Rachas de viento máximas Velocidades máximas media en intervalos de 10 minutos

Datos horarios

Fecha y hora oficial Temperatura (ºC) Velocidad del viento (km/h) Dirección del viento Racha (km/h) Dirección de racha Precipitación (mm) Presión (hPa) Tendencia (hPa) Humedad (%)
2020-11-23 23:00:00 8.8 -- -- -- -- 0 948.1 0.1 72
2020-11-23 22:00:00 8.9 -- -- -- -- 0 947.9 0 76
2020-11-23 21:00:00 9.1 -- -- -- -- 0 948.2 0.4 70
2020-11-23 20:00:00 9.6 -- -- -- -- 0 948 0.3 64
2020-11-23 19:00:00 10.1 -- -- -- -- 0 947.9 0.4 65
2020-11-23 18:00:00 11.5 -- -- -- -- 0 947.8 -0.2 56
2020-11-23 17:00:00 12.8 -- -- -- -- 0 947.7 -0.8 55
2020-11-23 16:00:00 13.2 -- -- -- -- 0 947.5 -1.7 52
2020-11-23 15:00:00 13 -- -- -- -- 0 948 -2 50
2020-11-23 14:00:00 12.6 -- -- -- -- 0 948.5 -1.9 52
2020-11-23 13:00:00 11.2 -- -- -- -- 0 949.2 -1 59
2020-11-23 12:00:00 10.2 -- -- -- -- 0 950 0.3 59
2020-11-23 11:00:00 8.5 -- -- -- -- 0 950.4 1 67
2020-11-23 10:00:00 6.7 -- -- -- -- 0 950.2 1 74
2020-11-23 09:00:00 5 -- -- -- -- 0 949.7 0.7 85
2020-11-23 08:00:00 4.8 -- -- -- -- 0 949.4 0.2 84
2020-11-23 07:00:00 4.9 -- -- -- -- 0 949.2 0.1 88
2020-11-23 06:00:00 4.6 -- -- -- -- 0 949 -0.2 89
2020-11-23 05:00:00 5 -- -- -- -- 0 949.2 0 88
2020-11-23 04:00:00 5.4 -- -- -- -- 0 949.1 -- 85
2020-11-23 03:00:00 5.4 -- -- -- -- 0 949.2 -- 86
2020-11-23 02:00:00 5.7 -- -- -- -- 0 949.2 -- 85
2020-11-23 01:00:00 7.4 -- -- -- -- 0 949.8 -- 78
2020-11-23 00:00:00 8 -- -- -- -- 0 949.7 -- 74
2020-11-22 23:00:00 8 -- -- -- -- 0 949.6 -- 78
2020-11-22 22:00:00 7.8 -- -- -- -- 0 949.6 -- 76
2020-11-22 21:00:00 8.5 -- -- -- -- 0 949.2 -- 70
2020-11-22 20:00:00 8.7 -- -- -- -- 0 948.9 -- 69
2020-11-22 19:00:00 9.6 -- -- -- -- 0 948.7 -- 64
2020-11-22 18:00:00 10.8 -- -- -- -- 0 948.3 -- 58
2020-11-22 17:00:00 12.2 -- -- -- -- 0 948.2 -- 56
2020-11-22 16:00:00 12.7 -- -- -- -- 0 948.5 -- 49
2020-11-22 15:00:00 12.5 -- -- -- -- 0 948.5 -- 49
2020-11-22 14:00:00 12.1 -- -- -- -- 0 949.1 -- 54
2020-11-22 13:00:00 10.9 -- -- -- -- 0 950 -- 56
2020-11-22 12:00:00 9.4 -- -- -- -- 0 950.7 -- 59
2020-11-22 11:00:00 8 -- -- -- -- 0 951.2 -- 65
2020-11-22 10:00:00 6.4 -- -- -- -- 0 950.8 -- 68
2020-11-22 09:00:00 4.6 -- -- -- -- 0 950.8 -- 76
2020-11-22 08:00:00 4.3 -- -- -- -- 0 950.4 -- 77
2020-11-22 07:00:00 4.6 -- -- -- -- 0 950.2 -- 76
2020-11-22 06:00:00 5.2 -- -- -- -- 0 950.1 -- 72
2020-11-22 05:00:00 5.9 -- -- -- -- 0 950.1 -- 63
2020-11-22 04:00:00 6.5 -- -- -- -- 0 950.2 -- 62
2020-11-22 03:00:00 7.1 -- -- -- -- 0 950.2 -- 65
2020-11-22 02:00:00 7.5 -- -- -- -- 0 950.3 -- 66
2020-11-22 01:00:00 8 -- -- -- -- 0 950.5 -- 64
2020-11-22 00:00:00 8.3 -- -- -- -- 0 950.3 -- 58
2020-11-21 23:00:00 9 -- -- -- -- 0 950.4 -- 54
2020-11-21 22:00:00 9.7 -- -- -- -- 0 950.2 -- 49
2020-11-21 21:00:00 10.1 -- -- -- -- 0 950 -- 45
2020-11-21 20:00:00 9.8 -- -- -- -- 0 949.7 -- 47
2020-11-21 19:00:00 10.2 -- -- -- -- 0 949.3 -- 52
2020-11-21 18:00:00 11.5 -- -- -- -- 0 948.9 -- 47
2020-11-21 17:00:00 13 -- -- -- -- 0 948.7 -- 38
2020-11-21 16:00:00 13 -- -- -- -- 0 948.5 -- 39
2020-11-21 15:00:00 12.8 -- -- -- -- 0 948.7 -- 34
2020-11-21 14:00:00 12.2 -- -- -- -- 0 948.9 -- 34
2020-11-21 13:00:00 11.3 -- -- -- -- 0 949.6 -- 34
2020-11-21 12:00:00 10.4 -- -- -- -- 0 950.4 -- 36
2020-11-21 11:00:00 9.5 -- -- -- -- 0 950.1 -- 38
2020-11-21 10:00:00 8.1 -- -- -- -- 0 949.8 -- 49
2020-11-21 09:00:00 7.6 -- -- -- -- 0 949.1 -- 48
2020-11-21 08:00:00 7.8 -- -- -- -- 0 948.9 -- 46
2020-11-21 07:00:00 7.6 -- -- -- -- 0 948.3 -- 47
2020-11-21 06:00:00 6.5 -- -- -- -- 0 948.6 -- 63
2020-11-21 05:00:00 6.9 -- -- -- -- 0 948.8 -- 67
2020-11-21 04:00:00 7.5 -- -- -- -- 0 949.1 -- 65
2020-11-21 03:00:00 7.2 -- -- -- -- 0 948.9 -- 65
2020-11-21 02:00:00 7.3 -- -- -- -- 0 949.4 -- 69
2020-11-21 01:00:00 8.1 -- -- -- -- 0 950.1 -- 62
2020-11-21 00:00:00 9 -- -- -- -- 0 949.9 -- 61
2020-11-20 23:00:00 10.5 -- -- -- -- 0 950 -- 50
2020-11-20 22:00:00 10.9 -- -- -- -- 0 949.6 -- 47
2020-11-20 21:00:00 10.6 -- -- -- -- 0 949.2 -- 52
2020-11-20 20:00:00 11.6 -- -- -- -- 0 949.2 -- 50
2020-11-20 19:00:00 12 -- -- -- -- 0 949.5 -- 47
2020-11-20 18:00:00 13 -- -- -- -- 0 949.6 -- 48
2020-11-20 17:00:00 15 -- -- -- -- 0 949.5 -- 37
2020-11-20 16:00:00 15.3 -- -- -- -- 0 949.7 -- 38
2020-11-20 15:00:00 15.4 -- -- -- -- 0 950 -- 33
2020-11-20 14:00:00 15.3 -- -- -- -- 0 950.7 -- 35
2020-11-20 13:00:00 14.1 -- -- -- -- 0 951.4 -- 40
2020-11-20 12:00:00 12.3 -- -- -- -- 0 952.2 -- 55
2020-11-20 11:00:00 10.2 -- -- -- -- 0 952.5 -- 62
2020-11-20 10:00:00 8.5 -- -- -- -- 0 952.3 -- 69
2020-11-20 09:00:00 7.6 -- -- -- -- 0 952.1 -- 74
2020-11-20 08:00:00 7.5 -- -- -- -- 0 951.8 -- 75
2020-11-20 07:00:00 7.8 -- -- -- -- 0 952 -- 76
2020-11-20 06:00:00 8.3 -- -- -- -- 0 952.2 -- 76
2020-11-20 05:00:00 8.9 -- -- -- -- 0 952.6 -- 78
2020-11-20 04:00:00 9.1 -- -- -- -- 0 952.9 -- 80
2020-11-20 03:00:00 9.5 -- -- -- -- 0 953.1 -- 82
2020-11-20 02:00:00 10.4 -- -- -- -- 0 953.6 -- 79
2020-11-20 01:00:00 11.1 -- -- -- -- 0 954 -- 78
2020-11-20 00:00:00 12.4 -- -- -- -- 0 954.2 -- 72
2020-11-19 23:00:00 13 -- -- -- -- 0 954.1 -- 69
2020-11-19 22:00:00 14.4 -- -- -- -- 0 954 -- 69
2020-11-19 21:00:00 15.2 -- -- -- -- 0 953.7 -- 66
2020-11-19 20:00:00 16.3 -- -- -- -- 0 953.4 -- 62
2020-11-19 19:00:00 16.8 -- -- -- -- 0 953.3 -- 64
2020-11-19 18:00:00 17.1 -- -- -- -- 0 952.8 -- 63
2020-11-19 17:00:00 18.4 -- -- -- -- 0 952.4 -- 56
2020-11-19 16:00:00 18.8 -- -- -- -- 0 952.2 -- 53
2020-11-19 15:00:00 18.8 -- -- -- -- 0 952.6 -- 55
2020-11-19 14:00:00 18.4 -- -- -- -- 0 952.9 -- 57
2020-11-19 13:00:00 16.9 -- -- -- -- 0 953.5 -- 67
2020-11-19 12:00:00 15.4 -- -- -- -- 0 954.1 -- 69
2020-11-19 11:00:00 12.5 -- -- -- -- 0 954.3 -- 78
2020-11-19 10:00:00 9.2 -- -- -- -- 0 953.6 -- 99
2020-11-19 09:00:00 8.1 -- -- -- -- 0 952.7 -- 99
2020-11-19 08:00:00 7.8 -- -- -- -- 0 952.2 -- 98
2020-11-19 07:00:00 8.1 -- -- -- -- 0 951.7 -- 98
2020-11-19 06:00:00 8.2 -- -- -- -- 0 951.4 -- 98
2020-11-19 05:00:00 8.4 -- -- -- -- 0 951.1 -- 98
2020-11-19 04:00:00 8.7 -- -- -- -- 0 951.1 -- 98
2020-11-19 03:00:00 9.2 -- -- -- -- 0 951.1 -- 97
2020-11-19 02:00:00 9.8 -- -- -- -- 0 951.1 -- 98
2020-11-19 01:00:00 10.3 -- -- -- -- 0 951.3 -- 98
2020-11-19 00:00:00 10.2 -- -- -- -- 0 951.3 -- 98
2020-11-18 23:00:00 10.5 -- -- -- -- 0 951.3 -- 98
2020-11-18 22:00:00 10.5 -- -- -- -- 0 950.9 -- 97
2020-11-18 21:00:00 10.8 -- -- -- -- 0 950.4 -- 96
2020-11-18 20:00:00 11.5 -- -- -- -- 0 950.3 -- 94
2020-11-18 19:00:00 12 -- -- -- -- 0 950.1 -- 92
2020-11-18 18:00:00 12.7 -- -- -- -- 0 949.6 -- 88
2020-11-18 17:00:00 13.9 -- -- -- -- 0 949.4 -- 83
2020-11-18 16:00:00 13.8 -- -- -- -- 0 949.4 -- 83
2020-11-18 15:00:00 13 -- -- -- -- 0 949.5 -- 84
2020-11-18 14:00:00 12.8 -- -- -- -- 0 950.2 -- 87
2020-11-18 13:00:00 11.8 -- -- -- -- 0 951 -- 91
2020-11-18 12:00:00 11.2 -- -- -- -- 0 951.5 -- 94
2020-11-18 11:00:00 10.7 -- -- -- -- 0 951.4 -- 96
2020-11-18 10:00:00 10.3 -- -- -- -- 0 951.1 -- 97
2020-11-18 09:00:00 10 -- -- -- -- 0 950.9 -- 97
2020-11-18 08:00:00 10 -- -- -- -- 0 950.3 -- 95
2020-11-18 07:00:00 10.6 -- -- -- -- 0 949.9 -- 96
2020-11-18 06:00:00 10.6 -- -- -- -- 0 949.9 -- 96
2020-11-18 05:00:00 10.6 -- -- -- -- 0 949.9 -- 97
2020-11-18 04:00:00 10.4 -- -- -- -- 0 949.8 -- 99
2020-11-18 03:00:00 10.1 -- -- -- -- 0 949.8 -- 99
2020-11-18 02:00:00 9.7 -- -- -- -- 0 949.9 -- 99
2020-11-18 01:00:00 9.3 -- -- -- -- 0 949.9 -- 99
2020-11-18 00:00:00 9.5 -- -- -- -- 0 950.3 -- 98
2020-11-17 23:00:00 10 -- -- -- -- 0 950.2 -- 98
2020-11-17 22:00:00 10.3 -- -- -- -- 0 949.9 -- 98
2020-11-17 21:00:00 10.8 -- -- -- -- 0 949.9 -- 99
2020-11-17 20:00:00 11.2 -- -- -- -- 0 949.6 -- 98
2020-11-17 19:00:00 11.4 -- -- -- -- 0 949.1 -- 97
2020-11-17 18:00:00 11.8 -- -- -- -- 0 948.8 -- 94
2020-11-17 17:00:00 12.5 -- -- -- -- 0 948.7 -- 92
2020-11-17 16:00:00 12.1 -- -- -- -- 0 948.7 -- 93
2020-11-17 15:00:00 12.3 -- -- -- -- 0 948.9 -- 89
2020-11-17 14:00:00 12.7 -- -- -- -- 0 949 -- 87
2020-11-17 13:00:00 12 -- -- -- -- 0 949.9 -- 89
2020-11-17 12:00:00 11.3 -- -- -- -- 0 950.3 -- 90
2020-11-17 11:00:00 10.2 -- -- -- -- 0 950.3 -- 93
2020-11-17 10:00:00 9.7 -- -- -- -- 0 950.1 -- 92
2020-11-17 09:00:00 8.4 -- -- -- -- 0 949.7 -- 89
2020-11-17 08:00:00 8.5 -- -- -- -- 0.1 949 -- 90
2020-11-17 07:00:00 8.6 -- -- -- -- 0 948.5 -- 88
2020-11-17 06:00:00 9 -- -- -- -- 0 948.4 -- 87
2020-11-17 05:00:00 9.5 -- -- -- -- 0 948.2 -- 89
2020-11-17 04:00:00 9.9 -- -- -- -- 0 948.3 -- 89
2020-11-17 03:00:00 10.3 -- -- -- -- 0 948.6 -- 92
2020-11-17 02:00:00 10.8 -- -- -- -- 0 948.5 -- 90
2020-11-17 01:00:00 11.9 -- -- -- -- 0 948.5 -- 87
2020-11-17 00:00:00 12.5 -- -- -- -- 0 948.6 -- 84
2020-11-16 23:00:00 12.7 -- -- -- -- 0 948.4 -- 92
2020-11-16 22:00:00 12.5 -- -- -- -- 0 948.3 -- 94
2020-11-16 21:00:00 12.9 -- -- -- -- 0 947.9 -- 93
2020-11-16 20:00:00 13.2 -- -- -- -- 0 947.5 -- 90
2020-11-16 19:00:00 14.6 -- -- -- -- 0 947.1 -- 84
2020-11-16 18:00:00 15.5 -- -- -- -- 0 946.4 -- 78
2020-11-16 17:00:00 16.7 -- -- -- -- 0 946.1 -- 72
2020-11-16 16:00:00 16.8 -- -- -- -- 0 945.8 -- 70
2020-11-16 15:00:00 16.7 -- -- -- -- 0 946 -- 70
2020-11-16 14:00:00 16 -- -- -- -- 0 946.3 -- 70
2020-11-16 13:00:00 14.1 -- -- -- -- 0 946.9 -- 89
2020-11-16 12:00:00 12.9 -- -- -- -- 0 947 -- 95
2020-11-16 11:00:00 12.4 -- -- -- -- 0 946.6 -- 98
2020-11-16 10:00:00 12.5 -- -- -- -- 0 946.3 -- 99
2020-11-16 09:00:00 11.6 -- -- -- -- 0 945.7 -- 99
2020-11-16 08:00:00 11.3 -- -- -- -- 0 944.8 -- 99
2020-11-16 07:00:00 11.8 -- -- -- -- 0 944.6 -- 99
2020-11-16 06:00:00 11.8 -- -- -- -- 0 944.8 -- 99
2020-11-16 05:00:00 12 -- -- -- -- 0 944 -- 99
2020-11-16 04:00:00 12.2 -- -- -- -- 0 944.5 -- 99
2020-11-16 03:00:00 12.4 -- -- -- -- 0 944.4 -- 99
2020-11-16 02:00:00 12.7 -- -- -- -- 0 944.6 -- 98
2020-11-16 01:00:00 13 -- -- -- -- 0 944.8 -- 99
2020-11-16 00:00:00 13 -- -- -- -- 0 944.9 -- 98
2020-11-15 23:00:00 13.1 -- -- -- -- 0 944.9 -- 96
2020-11-15 22:00:00 13.9 -- -- -- -- 0 944.6 -- 95
2020-11-15 21:00:00 13.9 -- -- -- -- 0 944.3 -- 95
2020-11-15 20:00:00 14.2 -- -- -- -- 0 944.1 -- 93
2020-11-15 19:00:00 14.6 -- -- -- -- 0 943.8 -- 92
2020-11-15 18:00:00 15.1 -- -- -- -- 0 943.6 -- 91
2020-11-15 17:00:00 15.5 -- -- -- -- 0 943.7 -- 88
2020-11-15 16:00:00 15.2 -- -- -- -- 0 943.4 -- 90
2020-11-15 15:00:00 14.5 -- -- -- -- 0 943.7 -- 93
2020-11-15 14:00:00 14.2 -- -- -- -- 0 943.7 -- 93
2020-11-15 13:00:00 14.1 -- -- -- -- 0 944.2 -- 94
2020-11-15 12:00:00 13 -- -- -- -- 0 944.8 -- 96
2020-11-15 11:00:00 12.4 -- -- -- -- 0 944.8 -- 98
2020-11-15 10:00:00 11.8 -- -- -- -- 0 944.9 -- 99
2020-11-15 09:00:00 11.6 -- -- -- -- 0 944.2 -- 99
2020-11-15 08:00:00 11.7 -- -- -- -- 0 944.1 -- 99
2020-11-15 07:00:00 11.8 -- -- -- -- 0 943.8 -- 98
2020-11-15 06:00:00 11.8 -- -- -- -- 0 943.8 -- 97
2020-11-15 05:00:00 11.9 -- -- -- -- 0 943.4 -- 97
2020-11-15 04:00:00 12 -- -- -- -- 0 943.5 -- 98
2020-11-15 03:00:00 12 -- -- -- -- 0 943.9 -- 98
2020-11-15 02:00:00 11.8 -- -- -- -- 0 944 -- 98
2020-11-15 01:00:00 12 -- -- -- -- 0 944.5 -- 99
2020-11-15 00:00:00 12.2 -- -- -- -- 0 944.5 -- 98
2020-11-14 23:00:00 12 -- -- -- -- 0 944.5 -- 99
2020-11-14 22:00:00 11.9 -- -- -- -- 0 944.3 -- 99
2020-11-14 21:00:00 11.9 -- -- -- -- 0 944 -- 98
2020-11-14 20:00:00 11.9 -- -- -- -- 0 943.9 -- 98
2020-11-14 19:00:00 12 -- -- -- -- 0 943.6 -- 98
2020-11-14 18:00:00 12 -- -- -- -- 0 943.1 -- 97
2020-11-14 17:00:00 12.2 -- -- -- -- 0 943 -- 97
2020-11-14 16:00:00 12.1 -- -- -- -- 0.3 942.7 -- 95
2020-11-14 15:00:00 12.1 -- -- -- -- 0.3 943 -- 95
2020-11-14 14:00:00 11.9 -- -- -- -- 0.1 943.3 -- 94
2020-11-14 13:00:00 11.7 -- -- -- -- 0.4 943.7 -- 95
2020-11-14 12:00:00 11.4 -- -- -- -- 0.7 944.2 -- 95
2020-11-14 11:00:00 11.1 -- -- -- -- 0.7 944.1 -- 93
2020-11-14 10:00:00 10.9 -- -- -- -- 0 944 -- 90
2020-11-14 09:00:00 11 -- -- -- -- 0 943.5 -- 86
2020-11-14 08:00:00 10.9 -- -- -- -- 0 943.1 -- 83
2020-11-14 07:00:00 10.9 -- -- -- -- 0 942.7 -- 82
2020-11-14 06:00:00 11.1 -- -- -- -- 0 942.7 -- 82
2020-11-14 05:00:00 11.1 -- -- -- -- 0 942.5 -- 83
2020-11-14 04:00:00 10.8 -- -- -- -- 0 942.9 -- 85
2020-11-14 03:00:00 11 -- -- -- -- 0 943.3 -- 82
2020-11-14 02:00:00 10.8 -- -- -- -- 0 943.5 -- 84
2020-11-14 01:00:00 10.8 -- -- -- -- 0 943.9 -- 84
2020-11-14 00:00:00 11.2 -- -- -- -- 0 944.1 -- 82
2020-11-13 23:00:00 11.5 -- -- -- -- 0 944.1 -- 81
2020-11-13 22:00:00 12 -- -- -- -- 0 943.9 -- 77
2020-11-13 21:00:00 11.9 -- -- -- -- 0 943.6 -- 77
2020-11-13 20:00:00 11.9 -- -- -- -- 0 943.6 -- 76
2020-11-13 19:00:00 12.1 -- -- -- -- 0 943 -- 78
2020-11-13 18:00:00 12.7 -- -- -- -- 0 942.6 -- 75
2020-11-13 17:00:00 14 -- -- -- -- 0 942.6 -- 71
2020-11-13 16:00:00 14.8 -- -- -- -- 0 942.4 -- 64
2020-11-13 15:00:00 14.7 -- -- -- -- 0 942.9 -- 59
2020-11-13 14:00:00 13.8 -- -- -- -- 0 943.4 -- 68
2020-11-13 13:00:00 12.7 -- -- -- -- 0 944 -- 71
2020-11-13 12:00:00 12.1 -- -- -- -- 0 944.3 -- 72
2020-11-13 11:00:00 10.9 -- -- -- -- 0 944.5 -- 75
2020-11-13 10:00:00 10 -- -- -- -- 0 944.4 -- 79
2020-11-13 09:00:00 9.3 -- -- -- -- 0 943.7 -- 81
2020-11-13 08:00:00 9.1 -- -- -- -- 0 943.4 -- 81
2020-11-13 07:00:00 9.3 -- -- -- -- 0 943.1 -- 81
2020-11-13 06:00:00 9.8 -- -- -- -- 0 943.1 -- 80
2020-11-13 05:00:00 9.7 -- -- -- -- 0 942.8 -- 81
2020-11-13 04:00:00 9.7 -- -- -- -- 0 943 -- 83
2020-11-13 03:00:00 10.4 -- -- -- -- 0 943 -- 80
2020-11-13 02:00:00 10.9 -- -- -- -- 0 943.3 -- 80
2020-11-13 01:00:00 11.2 -- -- -- -- 0 943.7 -- 80
2020-11-13 00:00:00 11.6 -- -- -- -- 0 943.7 -- 83
2020-11-12 23:00:00 11.8 -- -- -- -- 0 943.7 -- 82
2020-11-12 22:00:00 11.5 -- -- -- -- 0 943.8 -- 83
2020-11-12 21:00:00 11.3 -- -- -- -- 0 943.6 -- 82
2020-11-12 20:00:00 11.4 -- -- -- -- 0 943.5 -- 79
2020-11-12 19:00:00 12.2 -- -- -- -- 0 943.4 -- 75
2020-11-12 18:00:00 12.9 -- -- -- -- 0 943.1 -- 73
2020-11-12 17:00:00 14 -- -- -- -- 0 943.3 -- 67
2020-11-12 16:00:00 14.5 -- -- -- -- 0 943.3 -- 67
2020-11-12 15:00:00 14.2 -- -- -- -- 0 943.6 -- 68
2020-11-12 14:00:00 13 -- -- -- -- 0 944.3 -- 71
2020-11-12 13:00:00 12.3 -- -- -- -- 0 945 -- 71
2020-11-12 12:00:00 11.7 -- -- -- -- 0 945.7 -- 75
2020-11-12 11:00:00 10.7 -- -- -- -- 0 946 -- 80
2020-11-12 10:00:00 9.9 -- -- -- -- 0 946.3 -- 83
2020-11-12 09:00:00 9 -- -- -- -- 0 946.2 -- 89
2020-11-12 08:00:00 8.6 -- -- -- -- 0 945.6 -- 87
2020-11-12 07:00:00 8.7 -- -- -- -- 0 945.3 -- 86
2020-11-12 06:00:00 9 -- -- -- -- 0 945.4 -- 88
2020-11-12 05:00:00 9.2 -- -- -- -- 0 945.5 -- 86
2020-11-12 04:00:00 9.3 -- -- -- -- 0 945.9 -- 86
2020-11-12 03:00:00 9.7 -- -- -- -- 0 946.2 -- 86
2020-11-12 02:00:00 10.1 -- -- -- -- 0 946.5 -- 85
2020-11-12 01:00:00 10.1 -- -- -- -- 0 946.9 -- 86
2020-11-12 00:00:00 10 -- -- -- -- 0 946.8 -- 91
2020-11-11 23:00:00 10 -- -- -- -- 0 946.7 -- 93
2020-11-11 22:00:00 10.1 -- -- -- -- 0 946.4 -- 92
2020-11-11 21:00:00 10.2 -- -- -- -- 0 946.2 -- 90
2020-11-11 20:00:00 10.9 -- -- -- -- 0 946 -- 86
2020-11-11 19:00:00 11.5 -- -- -- -- 0 945.8 -- 82
2020-11-11 18:00:00 12.3 -- -- -- -- 0 945.8 -- 77
2020-11-11 17:00:00 13 -- -- -- -- 0 946 -- 75
2020-11-11 16:00:00 14 -- -- -- -- 0 945.8 -- 63
2020-11-11 15:00:00 13.2 -- -- -- -- 0 946 -- 70
2020-11-11 14:00:00 13 -- -- -- -- 0 946.4 -- 70
2020-11-11 13:00:00 12.3 -- -- -- -- 0 947 -- 72
2020-11-11 12:00:00 11.1 -- -- -- -- 0 947.8 -- 74
2020-11-11 11:00:00 10.6 -- -- -- -- 0 948.2 -- 77
2020-11-11 10:00:00 9.1 -- -- -- -- 0 948.3 -- 83
2020-11-11 09:00:00 7.9 -- -- -- -- 0 948.4 -- 88
2020-11-11 08:00:00 7.5 -- -- -- -- 0 947.9 -- 88
2020-11-11 07:00:00 7.5 -- -- -- -- 0 948 -- 89
2020-11-11 06:00:00 7.8 -- -- -- -- 0 948.3 -- 89
2020-11-11 05:00:00 7.6 -- -- -- -- 0 948 -- 93
2020-11-11 04:00:00 8.2 -- -- -- -- 0 948.2 -- 90
2020-11-11 03:00:00 9 -- -- -- -- 0 948.7 -- 88
2020-11-11 02:00:00 9.3 -- -- -- -- 0 949.1 -- 86
2020-11-11 01:00:00 9.2 -- -- -- -- 0 949.4 -- 91
2020-11-11 00:00:00 10.3 -- -- -- -- 0 948.9 -- 90
2020-11-10 23:00:00 9.8 -- -- -- -- 0 949.4 -- 92
2020-11-10 22:00:00 10 -- -- -- -- 0 949.2 -- 90
2020-11-10 21:00:00 10.3 -- -- -- -- 0 948.7 -- 89
2020-11-10 20:00:00 11 -- -- -- -- 0 948.9 -- 85
2020-11-10 19:00:00 11.6 -- -- -- -- 0 948.8 -- 80
2020-11-10 18:00:00 13 -- -- -- -- 0 948.6 -- 74
2020-11-10 17:00:00 14.4 -- -- -- -- 0 948.4 -- 69
2020-11-10 16:00:00 15 -- -- -- -- 0 948.3 -- 61
2020-11-10 15:00:00 15 -- -- -- -- 0 948.4 -- 62
2020-11-10 14:00:00 14.8 -- -- -- -- 0 949 -- 67
2020-11-10 13:00:00 13.1 -- -- -- -- 0 949.6 -- 70
2020-11-10 12:00:00 12.7 -- -- -- -- 0 950.1 -- 73
2020-11-10 11:00:00 11.6 -- -- -- -- 0 949.9 -- 79
2020-11-10 10:00:00 9.5 -- -- -- -- 0 949.9 -- 87
2020-11-10 09:00:00 7.8 -- -- -- -- 0 949.1 -- 95
2020-11-10 08:00:00 7.3 -- -- -- -- 0 948.7 -- 95
2020-11-10 07:00:00 7.4 -- -- -- -- 0 948 -- 95
2020-11-10 06:00:00 7.8 -- -- -- -- 0 948 -- 93
2020-11-10 05:00:00 8.3 -- -- -- -- 0 947.5 -- 95
2020-11-10 04:00:00 8.4 -- -- -- -- 0 947.6 -- 96
2020-11-10 03:00:00 9.1 -- -- -- -- 0 947.5 -- 96
2020-11-10 02:00:00 9.2 -- -- -- -- 0 947.5 -- 95
2020-11-10 01:00:00 9.8 -- -- -- -- 0 947.5 -- 95
2020-11-10 00:00:00 10.1 -- -- -- -- 0 947.4 -- 95
2020-11-09 23:00:00 10.6 -- -- -- -- 0 947.3 -- 94
2020-11-09 22:00:00 11.2 -- -- -- -- 0 947.2 -- 90
2020-11-09 21:00:00 11.4 -- -- -- -- 0.1 946.9 -- 88
2020-11-09 20:00:00 11.9 -- -- -- -- 0 946.6 -- 86
2020-11-09 19:00:00 12.5 -- -- -- -- 0 946.1 -- 83
2020-11-09 18:00:00 13 -- -- -- -- 0 945.4 -- 84
2020-11-09 17:00:00 14 -- -- -- -- 0 945.2 -- 81
2020-11-09 16:00:00 13.9 -- -- -- -- 0 944.8 -- 79
2020-11-09 15:00:00 13 -- -- -- -- 0 945 -- 82
2020-11-09 14:00:00 13 -- -- -- -- 0 945.3 -- 85
2020-11-09 13:00:00 12 -- -- -- -- 0 945.6 -- 93
2020-11-09 12:00:00 11.7 -- -- -- -- 0 946.2 -- 96
2020-11-09 11:00:00 10.8 -- -- -- -- 0 946.2 -- 98
2020-11-09 10:00:00 10.5 -- -- -- -- 0 945.8 -- 97
2020-11-09 09:00:00 10.1 -- -- -- -- 0 945.3 -- 98
2020-11-09 08:00:00 10.1 -- -- -- -- 0.2 944.4 -- 97
2020-11-09 07:00:00 10.3 -- -- -- -- 1 943.6 -- 98
2020-11-09 06:00:00 10.3 -- -- -- -- 3.7 943.8 -- 95
2020-11-09 05:00:00 10.5 -- -- -- -- 4.2 944.1 -- 94
2020-11-09 04:00:00 11.2 -- -- -- -- 0 943.4 -- 85
2020-11-09 03:00:00 11.1 -- -- -- -- 0 943.6 -- 89
2020-11-09 02:00:00 11.3 -- -- -- -- 0 943.8 -- 85
2020-11-09 01:00:00 11.3 -- -- -- -- 0 944 -- 84
2020-11-09 00:00:00 11.8 -- -- -- -- 0 944.2 -- 82
2020-11-08 23:00:00 11.5 -- -- -- -- 0 944.4 -- 84
2020-11-08 22:00:00 11.2 -- -- -- -- 0 944.5 -- 85
2020-11-08 21:00:00 12.3 -- -- -- -- 0 944.2 -- 80
2020-11-08 20:00:00 12.8 -- -- -- -- 0 944.2 -- 78
2020-11-08 19:00:00 13 -- -- -- -- 0 944.2 -- 76
2020-11-08 18:00:00 13 -- -- -- -- 0 944 -- 76
2020-11-08 17:00:00 14.1 -- -- -- -- 0 943.9 -- 71
2020-11-08 16:00:00 14.3 -- -- -- -- 0 944.1 -- 67
2020-11-08 15:00:00 14.4 -- -- -- -- 0 944.1 -- 70
2020-11-08 14:00:00 14 -- -- -- -- 0 944.8 -- 69
2020-11-08 13:00:00 12.9 -- -- -- -- 0 945.4 -- 77
2020-11-08 12:00:00 11.8 -- -- -- -- 0 946.3 -- 80
2020-11-08 11:00:00 10.9 -- -- -- -- 0 946.1 -- 82
2020-11-08 10:00:00 9.8 -- -- -- -- 0 946.6 -- 87
2020-11-08 09:00:00 9.2 -- -- -- -- 0 946 -- 93
2020-11-08 08:00:00 8.6 -- -- -- -- 0 945.7 -- 94
2020-11-08 07:00:00 8.9 -- -- -- -- 0 945.5 -- 93
2020-11-08 06:00:00 9.4 -- -- -- -- 0 945.5 -- 93
2020-11-08 05:00:00 9.7 -- -- -- -- 0 945.3 -- 90
2020-11-08 04:00:00 9.6 -- -- -- -- 0 945.8 -- 91
2020-11-08 03:00:00 9.4 -- -- -- -- 0 945.9 -- 92
2020-11-08 02:00:00 9.1 -- -- -- -- 0 946.1 -- 94
2020-11-08 01:00:00 9.2 -- -- -- -- 0 946.1 -- 94
2020-11-08 00:00:00 9.6 -- -- -- -- 0 945.8 -- 93
2020-11-07 23:00:00 9.5 -- -- -- -- 0 945.8 -- 91
2020-11-07 22:00:00 10.2 -- -- -- -- 0 945.5 -- 89
2020-11-07 21:00:00 10.8 -- -- -- -- 0 944.9 -- 86
2020-11-07 20:00:00 11.8 -- -- -- -- 0 944.6 -- 83
2020-11-07 19:00:00 12.5 -- -- -- -- 0 944.2 -- 80
2020-11-07 18:00:00 13 -- -- -- -- 0 943.6 -- 76
2020-11-07 17:00:00 13.8 -- -- -- -- 0.1 942.7 -- 76
2020-11-07 16:00:00 14.2 -- -- -- -- 0 942.3 -- 72
2020-11-07 15:00:00 14.3 -- -- -- -- 0 941.8 -- 75
2020-11-07 14:00:00 13.1 -- -- -- -- 0 941.7 -- 80
2020-11-07 13:00:00 12.1 -- -- -- -- 0.4 941.6 -- 88
2020-11-07 12:00:00 12 -- -- -- -- 0 941.3 -- 86
2020-11-07 11:00:00 11.8 -- -- -- -- 0 940.7 -- 88
2020-11-07 10:00:00 11.6 -- -- -- -- 0.1 939.7 -- 94
2020-11-07 09:00:00 11.4 -- -- -- -- 0 938.7 -- 97
2020-11-07 08:00:00 11.3 -- -- -- -- 0.1 937.8 -- 96
2020-11-07 07:00:00 11.3 -- -- -- -- 0.3 937 -- 95
2020-11-07 06:00:00 11.3 -- -- -- -- 0.2 937.5 -- 96
2020-11-07 05:00:00 11.3 -- -- -- -- 0 936.8 -- 95
2020-11-07 04:00:00 11.5 -- -- -- -- 0.1 937 -- 96
2020-11-07 03:00:00 11.8 -- -- -- -- 5.7 937.8 -- 95
2020-11-07 02:00:00 12.8 -- -- -- -- 8.8 938.5 -- 93
2020-11-07 01:00:00 14 -- -- -- -- 4.6 938.7 -- 95
2020-11-07 00:00:00 14.8 -- -- -- -- 0.2 939 -- 88
2020-11-06 23:00:00 15.5 -- -- -- -- 0 938.5 -- 78
2020-11-06 22:00:00 15.7 -- -- -- -- 0 938.6 -- 77
2020-11-06 21:00:00 15.9 -- -- -- -- 0 938.7 -- 76
2020-11-06 20:00:00 16 -- -- -- -- 0 938.3 -- 77
2020-11-06 19:00:00 16.8 -- -- -- -- 0 936.2 -- 70
2020-11-06 18:00:00 16.8 -- -- -- -- 0 936.8 -- 73
2020-11-06 17:00:00 17.5 -- -- -- -- 0 937.9 -- 70
2020-11-06 16:00:00 17.7 -- -- -- -- 0 937.4 -- 69
2020-11-06 15:00:00 18 -- -- -- -- 0 937.8 -- 67
2020-11-06 14:00:00 17.9 -- -- -- -- 0 938.6 -- 68
2020-11-06 13:00:00 17.9 -- -- -- -- 0 939.2 -- 68
2020-11-06 12:00:00 16.8 -- -- -- -- 0 940 -- 72
2020-11-06 11:00:00 14.8 -- -- -- -- 0 940.3 -0.8 78
2020-11-06 10:00:00 13 -- -- -- -- 0 940.7 -- 82
2020-11-06 09:00:00 11.9 -- -- -- -- 0 940.9 -- 86
2020-11-06 08:00:00 11 -- -- -- -- 0 941.1 -- 88
2020-11-06 07:00:00 10.9 -- -- -- -- 0 941.6 -- 92
2020-11-06 06:00:00 11.4 -- -- -- -- 0 941.2 -- 88
2020-11-06 05:00:00 11.4 -- -- -- -- 0 941.7 -- 88
2020-11-06 04:00:00 11 -- -- -- -- 0 941.6 -- 90
2020-11-06 03:00:00 11.1 -- -- -- -- 0 941.9 -- 91
2020-11-06 02:00:00 10.9 -- -- -- -- 0 941.5 -- 92
2020-11-06 01:00:00 11.4 -- -- -- -- 0 941.4 -- 92
2020-11-06 00:00:00 11.3 -- -- -- -- 0 942 -- 92
2020-11-05 23:00:00 11.3 -- -- -- -- 0 941.9 -- 94
2020-11-05 22:00:00 11.8 -- -- -- -- 0 941.8 -- 91
2020-11-05 21:00:00 11.7 -- -- -- -- 0 941.5 -- 92
2020-11-05 20:00:00 11.8 -- -- -- -- 0.1 941.3 -- 93
2020-11-05 19:00:00 11.8 -- -- -- -- 0.1 941.2 -- 96
2020-11-05 18:00:00 11.8 -- -- -- -- 0.6 940.8 -- 96
2020-11-05 17:00:00 11.8 -- -- -- -- 1.4 940.9 -- 96
2020-11-05 16:00:00 11.7 -- -- -- -- 1.2 941.5 -- 95
2020-11-05 15:00:00 11.9 -- -- -- -- 1 941.3 -- 92
2020-11-05 14:00:00 12.1 -- -- -- -- 0.4 941.8 -- 92
2020-11-05 13:00:00 11.4 -- -- -- -- 0 941.9 -- 90
2020-11-05 12:00:00 10.4 -- -- -- -- 0 942.5 -- 89
2020-11-05 11:00:00 9.4 -- -- -- -- 0.2 943 -- 92
2020-11-05 10:00:00 8.9 -- -- -- -- 0 943 -- 92
2020-11-05 09:00:00 8.5 -- -- -- -- 1.4 942.3 -- 93
2020-11-05 08:00:00 9.1 -- -- -- -- 0.2 942.5 -- 85
2020-11-05 07:00:00 9.5 -- -- -- -- 0 941.5 -- 78
2020-11-05 06:00:00 9.3 -- -- -- -- 0 941.5 -- 80
2020-11-05 05:00:00 9.1 -- -- -- -- 0 941.6 -- 81
2020-11-05 04:00:00 8.8 -- -- -- -- 0 941.5 -- 82
2020-11-05 03:00:00 8.4 -- -- -- -- 0 941.5 -- 83
2020-11-05 02:00:00 8.2 -- -- -- -- 0 941.9 -- 86
2020-11-05 01:00:00 8.1 -- -- -- -- 0 942 -- 90
2020-11-05 00:00:00 7.9 -- -- -- -- 0.4 942.4 -- 92
2020-11-04 23:00:00 7.9 -- -- -- -- 0.2 941.8 -- 93
2020-11-04 22:00:00 8.1 -- -- -- -- 0.4 941.6 -- 92
2020-11-04 21:00:00 8.6 -- -- -- -- 0 941.2 -- 85
2020-11-04 20:00:00 9.2 -- -- -- -- 0 940.8 -- 83
2020-11-04 19:00:00 9.5 -- -- -- -- 0 940.4 -- 86
2020-11-04 18:00:00 9.7 -- -- -- -- 0 939.9 -- 90
2020-11-04 17:00:00 9.6 -- -- -- -- 0 939.5 -- 91
2020-11-04 16:00:00 9.7 -- -- -- -- 0.2 940.1 -- 92
2020-11-04 15:00:00 9.7 -- -- -- -- 0.4 940 -- 89
2020-11-04 14:00:00 11 -- -- -- -- 0 940.4 -- 69
2020-11-04 13:00:00 10.1 -- -- -- -- 0 941.3 -- 70
2020-11-04 12:00:00 9.2 -- -- -- -- 0 942.3 -- 71
2020-11-04 11:00:00 8.2 -- -- -- -- 0 942.9 0.4 76
2020-11-04 10:00:00 7.4 -- -- -- -- 0.2 942.8 -- 79
2020-11-04 09:00:00 7.9 -- -- -- -- 0 942.6 -- 70
2020-11-04 08:00:00 7.9 -- -- -- -- 0 942.5 -- 73
2020-11-04 07:00:00 7.9 -- -- -- -- 0 942.8 -- 78
2020-11-04 06:00:00 8.4 -- -- -- -- 0 943.2 -- 72
2020-11-04 05:00:00 8.7 -- -- -- -- 0 943.7 -- 71
2020-11-04 04:00:00 9.1 -- -- -- -- 0 944.3 -- 72
2020-11-04 03:00:00 9.2 -- -- -- -- 0 944.9 -- 72
2020-11-04 02:00:00 9.7 -- -- -- -- 0 945.7 -- 71
2020-11-04 01:00:00 10.1 -- -- -- -- 0 946.4 -- 69
2020-11-04 00:00:00 10.6 -- -- -- -- 0 947.1 -- 71
2020-11-03 23:00:00 10.8 -- -- -- -- 0 947.5 -- 73
2020-11-03 22:00:00 11.2 -- -- -- -- 0 948 -- 71
2020-11-03 21:00:00 11.1 -- -- -- -- 0 948.2 -- 73
2020-11-03 20:00:00 11.1 -- -- -- -- 0.1 948.5 -- 78
2020-11-03 19:00:00 11 -- -- -- -- 0.1 948.2 -- 83
2020-11-03 18:00:00 11.7 -- -- -- -- 0 947.7 -- 81
2020-11-03 17:00:00 12.5 -- -- -- -- 0 947.3 -- 87
2020-11-03 16:00:00 14.1 -- -- -- -- 0.1 947.2 -- 93
2020-11-03 15:00:00 14.1 -- -- -- -- 0.5 947 -- 93
2020-11-03 14:00:00 14.3 -- -- -- -- 0.2 947.1 -- 91
2020-11-03 13:00:00 14.7 -- -- -- -- 0 947.2 -- 87
2020-11-03 12:00:00 14.4 -- -- -- -- 0 947.2 -- 89
2020-11-03 11:00:00 14.7 -- -- -- -- 0 947.2 -- 88
2020-11-03 10:00:00 14.5 -- -- -- -- 0 947.5 -- 86
2020-11-03 09:00:00 13.9 -- -- -- -- 0 947.3 -- 85
2020-11-03 08:00:00 13 -- -- -- -- 0 946.5 -- 88
2020-11-03 07:00:00 13 -- -- -- -- 0 945.9 -- 89
2020-11-03 06:00:00 13 -- -- -- -- 0 945.4 -- 89
2020-11-03 05:00:00 13 -- -- -- -- 0 945.7 -- 89
2020-11-03 04:00:00 13 -- -- -- -- 0 945.7 -- 88
2020-11-03 03:00:00 13.3 -- -- -- -- 0 945.7 -- 89
2020-11-03 02:00:00 13.6 -- -- -- -- 0 945.6 -- 91
2020-11-03 01:00:00 13.3 -- -- -- -- 0 945.7 -- 90
2020-11-03 00:00:00 13.8 -- -- -- -- 0 945.9 -- 88
2020-11-02 23:00:00 14.7 -- -- -- -- 0 945.9 -- 85
2020-11-02 22:00:00 15 -- -- -- -- 0 946 -- 83
2020-11-02 21:00:00 15 -- -- -- -- 0 946 -- 82
2020-11-02 20:00:00 15.5 -- -- -- -- 0 945.7 -- 77
2020-11-02 19:00:00 16.2 -- -- -- -- 0 945.4 -- 75
2020-11-02 18:00:00 17.3 -- -- -- -- 0 945 -- 68
2020-11-02 17:00:00 18 -- -- -- -- 0 944.8 -- 65
2020-11-02 16:00:00 18.7 -- -- -- -- 0 944.8 -- 62
2020-11-02 15:00:00 18.4 -- -- -- -- 0 945 -- 62
2020-11-02 14:00:00 18.1 -- -- -- -- 0 945.7 -- 64
2020-11-02 13:00:00 16.7 -- -- -- -- 0 946.6 -- 70
2020-11-02 12:00:00 16.5 -- -- -- -- 0 947.2 -- 70
2020-11-02 11:00:00 15.3 -- -- -- -- 0 947.2 -- 72
2020-11-02 10:00:00 12.7 -- -- -- -- 0 947.2 -- 81
2020-11-02 09:00:00 11.4 -- -- -- -- 0 946.8 -- 85
2020-11-02 08:00:00 10.8 -- -- -- -- 0 946.1 -- 90
2020-11-02 07:00:00 10.8 -- -- -- -- 0 946.3 -- 89
2020-11-02 06:00:00 10.6 -- -- -- -- 0 946.1 -- 92
2020-11-02 05:00:00 10.5 -- -- -- -- 0 946 -- 92
2020-11-02 04:00:00 11.2 -- -- -- -- 0 946.2 -- 90
2020-11-02 03:00:00 11.5 -- -- -- -- 0 946.3 -- 90
2020-11-02 02:00:00 11.9 -- -- -- -- 0 946.5 -- 91
2020-11-02 01:00:00 12.2 -- -- -- -- 0 946.8 -- 88
2020-11-02 00:00:00 12.9 -- -- -- -- 0 946.9 -- 88
2020-11-01 23:00:00 13 -- -- -- -- 0 946.9 -- 85
2020-11-01 22:00:00 13.8 -- -- -- -- 0 946.9 -- 83
2020-11-01 21:00:00 14.1 -- -- -- -- 0 946.6 -- 78
2020-11-01 20:00:00 15 -- -- -- -- 0 946.6 -- 72
2020-11-01 19:00:00 15.8 -- -- -- -- 0 946.4 -- 70
2020-11-01 18:00:00 17.4 -- -- -- -- 0 946.5 -- 67
2020-11-01 17:00:00 19.2 -- -- -- -- 0 946.4 -- 53
2020-11-01 16:00:00 19.3 -- -- -- -- 0 946.7 -- 58
2020-11-01 15:00:00 18.7 -- -- -- -- 0 947 -- 59
2020-11-01 14:00:00 18.4 -- -- -- -- 0 947.4 -- 61
2020-11-01 13:00:00 16.5 -- -- -- -- 0 948.3 -- 67
2020-11-01 12:00:00 15.2 -- -- -- -- 0 948.8 -- 70
2020-11-01 11:00:00 13.9 -- -- -- -- 0 949.3 -- 75
2020-11-01 10:00:00 12 -- -- -- -- 0 949 -- 80
2020-11-01 09:00:00 10.8 -- -- -- -- 0 948.6 -- 83
2020-11-01 08:00:00 9.3 -- -- -- -- 0 948.3 -- 89
2020-11-01 07:00:00 9.9 -- -- -- -- 0 947.7 -- 86
2020-11-01 06:00:00 10.1 -- -- -- -- 0 947.5 -- 88
2020-11-01 05:00:00 10 -- -- -- -- 0 948.1 -- 91
2020-11-01 04:00:00 10.7 -- -- -- -- 0 947.8 -- 88
2020-11-01 03:00:00 11.7 -- -- -- -- 0 948.2 -- 82
2020-11-01 02:00:00 12 -- -- -- -- 0 948.5 -- 84
2020-11-01 01:00:00 12.4 -- -- -- -- 0 948.5 -- 87
2020-11-01 00:00:00 12.9 -- -- -- -- 0 948.5 -- 85
2020-10-31 23:00:00 13 -- -- -- -- 0 948.2 -- 82
2020-10-31 22:00:00 13.9 -- -- -- -- 0 947.8 -- 80
2020-10-31 21:00:00 14.1 -- -- -- -- 0 947.8 -- 77
2020-10-31 20:00:00 14.9 -- -- -- -- 0 947.7 -- 75
2020-10-31 19:00:00 15.8 -- -- -- -- 0 947.5 -- 70
2020-10-31 18:00:00 17.8 -- -- -- -- 0 947.3 -- 62
2020-10-31 17:00:00 19 -- -- -- -- 0 947.1 -- 57
2020-10-31 16:00:00 19.5 -- -- -- -- 0 946.9 -- 56
2020-10-31 15:00:00 19.2 -- -- -- -- 0 947.2 -- 55
2020-10-31 14:00:00 19.3 -- -- -- -- 0 947.8 -- 56
2020-10-31 13:00:00 16.9 -- -- -- -- 0 948.3 -- 60
2020-10-31 12:00:00 15.5 -- -- -- -- 0 949.4 -- 66
2020-10-31 11:00:00 14.2 -- -- -- -- 0 949.2 -- 66
2020-10-31 10:00:00 11.5 -- -- -- -- 0 949.6 -- 77
2020-10-31 09:00:00 9.6 -- -- -- -- 0 949.4 -- 86
2020-10-31 08:00:00 8.9 -- -- -- -- 0 948.6 -- 88
2020-10-31 07:00:00 8.7 -- -- -- -- 0 948.4 -- 90
2020-10-31 06:00:00 9.1 -- -- -- -- 0 948.3 -- 88
2020-10-31 05:00:00 9.4 -- -- -- -- 0 948 -- 87
2020-10-31 04:00:00 10 -- -- -- -- 0 948.1 -- 87
2020-10-31 03:00:00 10.3 -- -- -- -- 0 948.4 -- 87
2020-10-31 02:00:00 10.8 -- -- -- -- 0 948.5 -- 86
2020-10-31 01:00:00 11.2 -- -- -- -- 0 948.5 -- 85
2020-10-31 00:00:00 11.6 -- -- -- -- 0 948.7 -- 84
2020-10-30 23:00:00 12 -- -- -- -- 0 948.8 -- 84
2020-10-30 22:00:00 12.6 -- -- -- -- 0 948.6 -- 81
2020-10-30 21:00:00 13.3 -- -- -- -- 0 948.4 -- 76
2020-10-30 20:00:00 14.2 -- -- -- -- 0 948.2 -- 72
2020-10-30 19:00:00 14.8 -- -- -- -- 0 948 -- 71
2020-10-30 18:00:00 15.9 -- -- -- -- 0 947.8 -- 66
2020-10-30 17:00:00 17.4 -- -- -- -- 0 947.8 -- 60
2020-10-30 16:00:00 17.6 -- -- -- -- 0 948.1 -- 58
2020-10-30 15:00:00 17.6 -- -- -- -- 0 948.5 -- 59
2020-10-30 14:00:00 16.8 -- -- -- -- 0 948.9 -- 58
2020-10-30 13:00:00 15.2 -- -- -- -- 0 949.6 -- 65
2020-10-30 12:00:00 14 -- -- -- -- 0 950.2 -- 68
2020-10-30 11:00:00 12.1 -- -- -- -- 0 950.4 -- 72
2020-10-30 10:00:00 9.7 -- -- -- -- 0 950.4 -- 79
2020-10-30 09:00:00 8.4 -- -- -- -- 0 950.2 -- 82
2020-10-30 08:00:00 7.7 -- -- -- -- 0 949.6 -- 88
2020-10-30 07:00:00 7.7 -- -- -- -- 0 949.5 -- 88
2020-10-30 06:00:00 8 -- -- -- -- 0 949.6 -- 87
2020-10-30 05:00:00 8.2 -- -- -- -- 0 949.3 -- 88
2020-10-30 04:00:00 8.2 -- -- -- -- 0 949.4 -- 89
2020-10-30 03:00:00 8.5 -- -- -- -- 0 949.4 -- 89
2020-10-30 02:00:00 8.7 -- -- -- -- 0 949.5 -- 90
2020-10-30 01:00:00 9.3 -- -- -- -- 0 949.4 -- 89
2020-10-30 00:00:00 9.2 -- -- -- -- 0 949.7 -- 89
2020-10-29 23:00:00 9.5 -- -- -- -- 0 950 -- 89
2020-10-29 22:00:00 10.3 -- -- -- -- 0 950 -- 86
2020-10-29 21:00:00 10.6 -- -- -- -- 0 949.6 -- 84
2020-10-29 20:00:00 11 -- -- -- -- 0 949.6 -- 81
2020-10-29 19:00:00 11.8 -- -- -- -- 0 949.4 -- 78
2020-10-29 18:00:00 13 -- -- -- -- 0 949 -- 72
2020-10-29 17:00:00 14.4 -- -- -- -- 0 948.8 -- 66
2020-10-29 16:00:00 14.5 -- -- -- -- 0 948.8 -- 64
2020-10-29 15:00:00 14.3 -- -- -- -- 0 948.9 -- 63
2020-10-29 14:00:00 14.1 -- -- -- -- 0 949.7 -- 67
2020-10-29 13:00:00 13.3 -- -- -- -- 0 950.3 -- 70
2020-10-29 12:00:00 13 -- -- -- -- 0 950.5 -- 73
2020-10-29 11:00:00 12.6 -- -- -- -- 0 950.6 -- 77
2020-10-29 10:00:00 11.8 -- -- -- -- 0 950.6 -- 84
2020-10-29 09:00:00 11.7 -- -- -- -- 0 950 -- 85
2020-10-29 08:00:00 11.5 -- -- -- -- 0 949.2 -- 87
2020-10-29 07:00:00 11.7 -- -- -- -- 0 949 -- 84
2020-10-29 06:00:00 11.6 -- -- -- -- 0 948.5 -- 84
2020-10-29 05:00:00 11.5 -- -- -- -- 0 947.8 -- 84
2020-10-29 04:00:00 11.5 -- -- -- -- 0 948 -- 86
2020-10-29 03:00:00 11.7 -- -- -- -- 0 948.3 -- 86
2020-10-29 02:00:00 11.8 -- -- -- -- 0 948.3 -- 86
2020-10-29 01:00:00 12 -- -- -- -- 0 948.2 -- 86
2020-10-29 00:00:00 12.3 -- -- -- -- 0 948.1 -- 85
2020-10-28 23:00:00 12.3 -- -- -- -- 0 947.9 -- 85
2020-10-28 22:00:00 12.3 -- -- -- -- 0 947.7 -- 87
2020-10-28 21:00:00 12.3 -- -- -- -- 0 947.6 -- 87
2020-10-28 20:00:00 12.3 -- -- -- -- 0 947.2 -- 86
2020-10-28 19:00:00 12.3 -- -- -- -- 0 946.8 -- 86
2020-10-28 18:00:00 12.5 -- -- -- -- 0 946.2 -- 85
2020-10-28 17:00:00 12.9 -- -- -- -- 0 945.8 -- 84
2020-10-28 16:00:00 12.8 -- -- -- -- 0 945.7 -- 85
2020-10-28 15:00:00 12.5 -- -- -- -- 0 945.7 -- 86
2020-10-28 14:00:00 12 -- -- -- -- 0 946.1 -- 88
2020-10-28 13:00:00 11.7 -- -- -- -- 0 946.2 -- 90
2020-10-28 12:00:00 11.3 -- -- -- -- 0 946.5 -- 92
2020-10-28 11:00:00 10.8 -- -- -- -- 0 946.1 -- 91
2020-10-28 10:00:00 10.4 -- -- -- -- 0 945.5 -- 92
2020-10-28 09:00:00 9.7 -- -- -- -- 0 945 -- 92
2020-10-28 08:00:00 9.2 -- -- -- -- 0 944.3 -- 94
2020-10-28 07:00:00 9 -- -- -- -- 0 943.8 -- 94
2020-10-28 06:00:00 8.5 -- -- -- -- 0 943.5 -- 94
2020-10-28 05:00:00 8.2 -- -- -- -- 0 943 -- 94
2020-10-28 04:00:00 8.2 -- -- -- -- 0 942.8 -- 93
2020-10-28 03:00:00 8.5 -- -- -- -- 0 942.9 -- 92
2020-10-28 02:00:00 9 -- -- -- -- 0 943.2 -- 90
2020-10-28 01:00:00 9.3 -- -- -- -- 0 943.3 -- 88
2020-10-28 00:00:00 9.9 -- -- -- -- 0 943.6 -- 84
2020-10-27 23:00:00 10.7 -- -- -- -- 0 943.4 -- 80
2020-10-27 22:00:00 10.9 -- -- -- -- 0 943 -- 78
2020-10-27 21:00:00 11.3 -- -- -- -- 0 942.7 -- 75
2020-10-27 20:00:00 11.6 -- -- -- -- 0 942.4 -- 73
2020-10-27 19:00:00 11.9 -- -- -- -- 0 942.2 -- 68
2020-10-27 18:00:00 12.6 -- -- -- -- 0 941.7 -- 59
2020-10-27 17:00:00 13.4 -- -- -- -- 0 941.3 -- 58
2020-10-27 16:00:00 14.1 -- -- -- -- 0 941.4 -- 54
2020-10-27 15:00:00 14.2 -- -- -- -- 0 941.5 -- 54
2020-10-27 14:00:00 14.8 -- -- -- -- 0 942 -- 47
2020-10-27 13:00:00 13 -- -- -- -- 0 942.5 -- 57
2020-10-27 12:00:00 12.5 -- -- -- -- 0 942.7 -- 56
2020-10-27 11:00:00 10.9 -- -- -- -- 0 942.9 -- 64
2020-10-27 10:00:00 8.8 -- -- -- -- 0 943 -- 68
2020-10-27 09:00:00 7.2 -- -- -- -- 0 942.7 -- 75
2020-10-27 08:00:00 6.4 -- -- -- -- 0 942.4 -- 79
2020-10-27 07:00:00 5.7 -- -- -- -- 0 942.2 -- 81
2020-10-27 06:00:00 6.6 -- -- -- -- 0 942.4 -- 77
2020-10-27 05:00:00 7 -- -- -- -- 0 942.3 -- 77
2020-10-27 04:00:00 7.6 -- -- -- -- 0 942.4 -- 70
2020-10-27 03:00:00 7.6 -- -- -- -- 0 942.5 -- 72
2020-10-27 02:00:00 7.6 -- -- -- -- 0 943 -- 72
2020-10-27 01:00:00 7.9 -- -- -- -- 0 942.9 -- 68
2020-10-27 00:00:00 7.8 -- -- -- -- 0 943.5 -- 66
2020-10-26 23:00:00 8 -- -- -- -- 0 943.4 -- 65
2020-10-26 22:00:00 8.4 -- -- -- -- 0 943.2 -- 65
2020-10-26 21:00:00 9 -- -- -- -- 0 942.9 -- 61
2020-10-26 20:00:00 9.2 -- -- -- -- 0 942.8 -- 61
2020-10-26 19:00:00 9.4 -- -- -- -- 0 942.1 -- 59
2020-10-26 18:00:00 10.5 -- -- -- -- 0 941.5 -- 55
2020-10-26 17:00:00 11.7 -- -- -- -- 0 941.5 -- 51
2020-10-26 16:00:00 11.7 -- -- -- -- 0 941.2 -- 47
2020-10-26 15:00:00 12.1 -- -- -- -- 0 941.2 -- 49
2020-10-26 14:00:00 12.6 -- -- -- -- 0 941 -- 46
2020-10-26 13:00:00 11.3 -- -- -- -- 0 941 -- 54
2020-10-26 12:00:00 10.2 -- -- -- -- 0 941.2 -- 54
2020-10-26 11:00:00 9.6 -- -- -- -- 0 940.9 -- 59
2020-10-26 10:00:00 8.5 -- -- -- -- 0 940.4 -- 63
2020-10-26 09:00:00 7.3 -- -- -- -- 0.1 939.9 -- 72
2020-10-26 08:00:00 6.2 -- -- -- -- 0 938.9 -- 80
2020-10-26 07:00:00 5.4 -- -- -- -- 0 937.9 -- 87
2020-10-26 06:00:00 5.4 -- -- -- -- 0 937.2 -- 89
2020-10-26 05:00:00 5.4 -- -- -- -- 0 936.7 -- 90
2020-10-26 04:00:00 5.4 -- -- -- -- 0 936.3 -- 92
2020-10-26 03:00:00 5.5 -- -- -- -- 0 936.3 -- 93
2020-10-26 02:00:00 6.7 -- -- -- -- 0 936.4 -- 87
2020-10-26 01:00:00 7.4 -- -- -- -- 0.1 936.5 -- 92
2020-10-26 00:00:00 8.2 -- -- -- -- 0.2 936.4 -- 94
2020-10-25 23:00:00 8.4 -- -- -- -- 0.4 936.3 -- 92
2020-10-25 22:00:00 9.5 -- -- -- -- 0.9 936.3 -- 92
2020-10-25 21:00:00 11 14 Norte 33 Norte 2.8 935.7 -- 96
2020-10-25 20:00:00 11.5 16 Norte 177 Norte 1.7 935.2 -- 94
2020-10-25 19:00:00 12.3 18 Norte 180 Norte 0.6 934.9 -- 95
2020-10-25 18:00:00 12.3 31 Norte 177 Norte 0.7 935.2 -- 96
2020-10-25 17:00:00 12.3 12 Norte 31 Norte 0.1 935.9 -- 94
2020-10-25 16:00:00 12.6 16 Norte 176 Norte 0 936.5 -- 89
2020-10-25 15:00:00 13.6 21 Norte 42 Norte 0 937.2 -- 76
2020-10-25 14:00:00 13.7 13 Norte 180 Norte 0 938.1 -- 77
2020-10-25 13:00:00 13.1 18 Norte 37 Norte 0 939.1 -- 76
2020-10-25 12:00:00 13 17 Norte 38 Norte 0 939.9 -- 76
2020-10-25 11:00:00 11.9 13 Norte 28 Norte 0 940.3 -- 79
2020-10-25 10:00:00 10.8 14 Norte 30 Norte 0 941.2 -- 85
2020-10-25 09:00:00 10.3 10 Norte 21 Norte 0 940.7 -- 82
2020-10-25 08:00:00 9.5 2 Norte 12 Norte 0 941.1 -- 88
2020-10-25 07:00:00 9.2 6 Norte 166 Norte 0 941.3 -- 86
2020-10-25 06:00:00 8.9 5 Norte 18 Norte 0 941.2 -- 86
2020-10-25 05:00:00 8.6 8 Norte 18 Norte 0 941.5 -- 88
2020-10-25 04:00:00 8.6 5 Norte 173 Norte 0 942 -- 90
2020-10-25 03:00:00 8.6 7 Norte 148 Norte 0 943 -- 89
2020-10-25 02:00:00 9.2 6 Norte 15 Norte 0 943.4 -- 85
2020-10-25 01:00:00 10 7 Norte 19 Norte 0 944.7 -- 82
2020-10-25 00:00:00 10.1 6 Norte 174 Norte 0 945.1 -- 81